createdAt,value
2023-04-11T00:01:23.898Z,7.53
2023-04-11T00:04:26.381Z,8.05
2023-04-11T00:07:28.670Z,6.63
2023-04-11T00:10:32.155Z,6.90
2023-04-11T00:13:34.346Z,6.82
2023-04-11T00:16:37.215Z,6.80
2023-04-11T00:19:39.828Z,6.63
2023-04-11T00:22:43.779Z,6.80
2023-04-11T00:25:45.815Z,5.85
2023-04-11T00:28:48.639Z,6.95
2023-04-11T00:31:51.567Z,6.53
2023-04-11T00:34:55.491Z,6.63
2023-04-11T00:37:58.851Z,6.47
2023-04-11T00:41:02.681Z,6.38
2023-04-11T00:44:04.970Z,6.07
2023-04-11T00:47:07.579Z,6.85
2023-04-11T00:50:10.525Z,6.88
2023-04-11T00:53:13.340Z,7.75
2023-04-11T00:56:15.786Z,6.45
2023-04-11T00:59:19.373Z,5.80
2023-04-11T01:02:22.003Z,5.30
2023-04-11T01:05:24.527Z,5.90
2023-04-11T01:08:27.334Z,5.82
2023-04-11T01:11:32.693Z,5.43
2023-04-11T01:14:35.201Z,6.18
2023-04-11T01:17:37.535Z,5.97
2023-04-11T01:20:39.829Z,5.85
2023-04-11T01:23:42.449Z,5.32
2023-04-11T01:26:44.929Z,5.95
2023-04-11T01:29:48.024Z,5.50
2023-04-11T01:32:50.988Z,5.00
2023-04-11T01:35:53.235Z,5.68
2023-04-11T01:38:56.429Z,6.13
2023-04-11T01:42:01.215Z,6.55
2023-04-11T01:45:07.278Z,6.03
2023-04-11T01:48:09.797Z,6.13
2023-04-11T01:51:12.394Z,5.55
2023-04-11T01:54:14.476Z,5.47
2023-04-11T01:57:16.727Z,5.20
2023-04-11T02:00:19.888Z,5.47
2023-04-11T02:03:23.614Z,5.20
2023-04-11T02:06:27.704Z,5.75
2023-04-11T02:09:29.877Z,5.18
2023-04-11T02:12:32.069Z,5.88
2023-04-11T02:15:34.199Z,5.72
2023-04-11T02:18:37.128Z,5.38
2023-04-11T02:21:39.964Z,5.60
2023-04-11T02:24:42.553Z,6.35
2023-04-11T02:27:44.765Z,5.72
2023-04-11T02:30:47.257Z,5.88
2023-04-11T02:33:49.391Z,6.18
2023-04-11T02:36:54.574Z,5.05
2023-04-11T02:39:57.861Z,6.00
2023-04-11T02:43:01.399Z,5.75
2023-04-11T02:46:12.531Z,5.75
2023-04-11T02:49:19.785Z,6.25
2023-04-11T02:52:22.893Z,5.28
2023-04-11T02:55:25.171Z,5.75
2023-04-11T02:58:29.087Z,5.85
2023-04-11T03:01:35.016Z,6.32
2023-04-11T03:04:37.682Z,5.72
2023-04-11T03:07:47.173Z,5.63
2023-04-11T03:10:49.769Z,4.80
2023-04-11T03:13:52.158Z,5.88
2023-04-11T03:16:55.259Z,5.40
2023-04-11T03:19:58.951Z,6.72
2023-04-11T03:23:01.228Z,5.80
2023-04-11T03:26:05.429Z,5.45
2023-04-11T03:29:08.985Z,6.97
2023-04-11T03:32:21.050Z,7.03
2023-04-11T03:35:24.177Z,6.38
2023-04-11T03:38:26.621Z,6.90
2023-04-11T03:41:28.815Z,5.28
2023-04-11T03:44:31.954Z,6.38
2023-04-11T03:47:34.550Z,6.07
2023-04-11T03:50:40.758Z,6.47
2023-04-11T03:53:43.586Z,6.22
2023-04-11T03:57:04.160Z,6.60
2023-04-11T04:00:10.397Z,7.47
2023-04-11T04:03:21.868Z,7.03
2023-04-11T04:06:27.196Z,7.22
2023-04-11T04:09:29.919Z,6.50
2023-04-11T04:12:34.767Z,7.05
2023-04-11T04:15:51.626Z,7.25
2023-04-11T04:18:58.437Z,7.57
2023-04-11T04:22:01.648Z,6.75
2023-04-11T04:25:13.208Z,7.07
2023-04-11T04:28:20.670Z,7.57
2023-04-11T04:31:26.097Z,6.82
2023-04-11T04:34:55.543Z,6.53
2023-04-11T04:38:06.622Z,7.93
2023-04-11T04:41:34.338Z,7.43
2023-04-11T04:44:36.654Z,6.20
2023-04-11T04:47:46.516Z,7.35
2023-04-11T04:50:48.718Z,6.82
2023-04-11T04:53:51.684Z,6.03
2023-04-11T04:56:54.345Z,7.13
2023-04-11T04:59:57.626Z,6.18
2023-04-11T05:03:00.220Z,7.60
2023-04-11T05:06:06.617Z,6.35
2023-04-11T05:09:09.834Z,8.15
2023-04-11T05:12:13.954Z,7.63
2023-04-11T05:15:18.735Z,7.25
2023-04-11T05:18:25.312Z,7.05
2023-04-11T05:21:28.964Z,6.63
2023-04-11T05:24:32.733Z,7.07
2023-04-11T05:27:36.278Z,7.75
2023-04-11T05:30:39.086Z,7.53
2023-04-11T05:33:43.412Z,5.95
2023-04-11T05:36:47.445Z,7.75
2023-04-11T05:39:49.497Z,7.00
2023-04-11T05:42:51.581Z,6.97
2023-04-11T05:45:55.302Z,6.18
2023-04-11T05:49:01.553Z,6.82
2023-04-11T05:52:03.605Z,7.22
2023-04-11T05:55:11.623Z,9.13
2023-04-11T05:58:13.964Z,8.25
2023-04-11T06:01:18.907Z,11.25
2023-04-11T06:04:27.604Z,6.70
2023-04-11T06:07:33.745Z,7.70
2023-04-11T06:10:39.160Z,8.02
2023-04-11T06:13:42.234Z,7.05
2023-04-11T06:16:45.920Z,6.22
2023-04-11T06:19:52.341Z,8.40
2023-04-11T06:23:09.694Z,8.50
2023-04-11T06:26:18.467Z,8.60
2023-04-11T06:29:26.934Z,10.40
2023-04-11T06:32:42.646Z,8.65
2023-04-11T06:35:59.277Z,6.72
2023-04-11T06:39:02.570Z,7.35
2023-04-11T06:42:04.730Z,7.75
2023-04-11T06:45:18.312Z,7.57
2023-04-11T06:48:24.457Z,7.35
2023-04-11T06:51:26.854Z,8.30
2023-04-11T06:54:29.416Z,8.40
2023-04-11T06:57:31.596Z,8.40
2023-04-11T07:00:36.391Z,7.20
2023-04-11T07:03:38.678Z,8.00
2023-04-11T07:06:41.062Z,8.27
2023-04-11T07:09:48.924Z,8.27
2023-04-11T07:12:51.407Z,7.45
2023-04-11T07:15:54.306Z,7.47
2023-04-11T07:18:56.912Z,7.95
2023-04-11T07:22:00.617Z,8.60
2023-04-11T07:25:06.237Z,8.60
2023-04-11T07:28:09.202Z,8.50
2023-04-11T07:31:12.438Z,8.60
2023-04-11T07:34:14.641Z,7.68
2023-04-11T07:37:18.313Z,7.70
2023-04-11T07:40:23.801Z,7.18
2023-04-11T07:43:32.039Z,7.85
2023-04-11T07:46:34.522Z,8.80
2023-04-11T07:49:36.700Z,7.10
2023-04-11T07:52:40.421Z,9.07
2023-04-11T07:55:43.198Z,8.52
2023-04-11T07:58:47.779Z,7.97
2023-04-11T08:02:08.300Z,8.23
2023-04-11T08:05:12.364Z,8.05
2023-04-11T08:08:16.831Z,7.70
2023-04-11T08:11:21.903Z,8.32
2023-04-11T08:14:24.180Z,7.07
2023-04-11T08:17:30.577Z,7.35
2023-04-11T08:20:47.048Z,7.40
2023-04-11T08:23:54.278Z,8.32
2023-04-11T08:26:57.304Z,8.20
2023-04-11T08:29:59.761Z,8.98
2023-04-11T08:33:02.499Z,8.50
2023-04-11T08:36:12.704Z,11.65
2023-04-11T08:39:15.251Z,8.82
2023-04-11T08:42:25.997Z,10.90
2023-04-11T08:45:29.398Z,9.85
2023-04-11T08:48:32.480Z,9.07
2023-04-11T08:52:05.002Z,8.73
2023-04-11T08:55:11.956Z,8.50
2023-04-11T08:58:17.290Z,7.95
2023-04-11T09:01:37.840Z,9.50
2023-04-11T09:04:45.143Z,7.90
2023-04-11T09:07:54.239Z,9.02
2023-04-11T09:11:01.620Z,8.65
2023-04-11T09:14:11.549Z,8.60
2023-04-11T09:17:13.762Z,9.57
2023-04-11T09:20:19.508Z,9.52
2023-04-11T09:23:24.269Z,9.70
2023-04-11T09:26:39.618Z,8.75
2023-04-11T09:29:51.209Z,7.57
2023-04-11T09:32:55.546Z,6.18
2023-04-11T09:36:03.025Z,6.40
2023-04-11T09:39:55.161Z,5.90
2023-04-11T09:43:02.573Z,5.95
2023-04-11T09:46:11.942Z,6.80
2023-04-11T09:49:15.077Z,6.45
2023-04-11T09:52:18.959Z,6.03
2023-04-11T09:55:24.876Z,5.43
2023-04-11T09:58:36.633Z,7.53
2023-04-11T10:01:47.351Z,6.28
2023-04-11T10:05:06.688Z,6.53
2023-04-11T10:08:22.792Z,5.82
2023-04-11T10:11:42.925Z,5.28
2023-04-11T10:14:46.938Z,5.60
2023-04-11T10:18:09.657Z,4.97
2023-04-11T10:21:41.725Z,5.88
2023-04-11T10:25:28.466Z,3.90
2023-04-11T10:28:35.904Z,7.00
2023-04-11T10:32:06.765Z,5.47
2023-04-11T10:38:54.202Z,5.25
2023-04-11T10:42:31.877Z,5.78
2023-04-11T10:45:39.985Z,5.50
2023-04-11T10:53:09.671Z,5.10
2023-04-11T10:56:43.305Z,12.30
2023-04-11T11:00:17.797Z,5.80
2023-04-11T11:03:30.214Z,4.75
2023-04-11T11:06:38.065Z,7.18
2023-04-11T11:09:51.979Z,6.20
2023-04-11T11:12:58.634Z,6.22
2023-04-11T11:17:20.090Z,5.57
2023-04-11T11:20:39.103Z,8.45
2023-04-11T11:24:02.812Z,6.40
2023-04-11T11:27:08.657Z,8.00
2023-04-11T11:30:13.285Z,7.13
2023-04-11T11:33:19.893Z,8.68
2023-04-11T11:36:24.870Z,12.15
2023-04-11T11:39:31.748Z,11.38
2023-04-11T11:42:36.085Z,6.38
2023-04-11T11:46:30.485Z,8.00
2023-04-11T11:51:06.358Z,7.40
2023-04-11T11:54:18.165Z,8.18
2023-04-11T11:57:27.147Z,9.27
2023-04-11T12:18:25.362Z,9.00
2023-04-11T12:21:30.217Z,6.38
2023-04-11T12:25:30.541Z,7.05
2023-04-11T12:28:36.059Z,7.82
2023-04-11T12:31:42.751Z,8.07
2023-04-11T12:34:47.187Z,5.32
2023-04-11T12:37:49.468Z,8.38
2023-04-11T12:44:56.976Z,6.32
2023-04-11T12:47:59.216Z,8.48
2023-04-11T12:51:01.542Z,5.97
2023-04-11T12:55:03.204Z,6.63
2023-04-11T13:10:17.472Z,5.85
2023-04-11T13:53:53.173Z,4.78
2023-04-11T13:58:14.457Z,6.15
2023-04-11T14:27:13.713Z,7.35
2023-04-11T14:30:16.004Z,7.57
2023-04-11T14:41:26.876Z,5.47
2023-04-11T14:54:02.400Z,6.95
2023-04-11T15:03:37.070Z,8.52
2023-04-11T15:06:39.683Z,7.32
2023-04-11T15:09:52.733Z,6.53
2023-04-11T15:26:23.152Z,6.85
2023-04-11T15:43:02.370Z,6.05
2023-04-11T15:46:30.379Z,6.75
2023-04-11T15:49:32.514Z,7.00
2023-04-11T15:52:34.709Z,5.57
2023-04-11T15:55:40.929Z,5.78
2023-04-11T15:58:43.091Z,5.00
2023-04-11T16:01:47.996Z,5.60
2023-04-11T16:10:08.484Z,6.32
2023-04-11T16:24:25.680Z,5.35
2023-04-11T16:33:14.780Z,4.22
2023-04-11T17:06:22.565Z,3.60
2023-04-11T17:30:38.102Z,3.65
2023-04-11T17:34:34.212Z,5.15
2023-04-11T17:38:24.354Z,4.82
2023-04-11T17:42:41.175Z,6.68
2023-04-11T17:46:21.570Z,6.53
2023-04-11T17:49:47.504Z,4.85
2023-04-11T17:52:53.513Z,6.30
2023-04-11T17:55:55.530Z,6.07
2023-04-11T17:58:57.664Z,7.57
2023-04-11T18:02:00.504Z,5.90
2023-04-11T18:05:10.410Z,6.63
2023-04-11T18:08:32.834Z,6.63
2023-04-11T18:11:44.831Z,5.65
2023-04-11T18:14:47.434Z,7.18
2023-04-11T18:17:51.691Z,7.82
2023-04-11T18:21:01.752Z,6.88
2023-04-11T18:24:04.499Z,6.90
2023-04-11T18:27:07.258Z,7.60
2023-04-11T18:30:16.219Z,7.28
2023-04-11T18:33:38.768Z,7.25
2023-04-11T18:36:48.911Z,6.93
2023-04-11T18:39:52.695Z,5.90
2023-04-11T18:42:58.925Z,6.30
2023-04-11T18:46:02.264Z,5.80
2023-04-11T18:49:07.616Z,6.82
2023-04-11T18:53:14.255Z,7.65
2023-04-11T18:56:24.110Z,7.40
2023-04-11T18:59:33.477Z,6.38
2023-04-11T19:02:39.233Z,6.15
2023-04-11T19:05:50.543Z,5.90
2023-04-11T19:08:53.417Z,6.03
2023-04-11T19:12:22.437Z,6.07
2023-04-11T19:15:26.087Z,5.25
2023-04-11T19:18:28.422Z,5.30
2023-04-11T19:21:31.032Z,4.40
2023-04-11T19:25:39.609Z,4.88
2023-04-11T19:33:26.385Z,5.03
2023-04-11T19:36:30.370Z,3.90
2023-04-11T19:39:38.224Z,3.50
2023-04-11T19:42:47.599Z,4.45
2023-04-11T19:45:49.991Z,5.20
2023-04-11T19:48:53.816Z,4.05
2023-04-11T19:51:57.904Z,4.63
2023-04-11T19:55:00.247Z,4.40
2023-04-11T19:58:03.889Z,4.22
2023-04-11T20:01:07.726Z,4.95
2023-04-11T20:04:09.908Z,4.55
2023-04-11T20:07:12.793Z,4.88
2023-04-11T20:10:18.944Z,3.72
2023-04-11T20:13:21.170Z,4.88
2023-04-11T20:16:25.311Z,4.28
2023-04-11T20:19:30.322Z,4.00
2023-04-11T20:22:33.643Z,4.30
2023-04-11T20:25:36.053Z,3.72
2023-04-11T20:28:38.187Z,3.75
2023-04-11T20:31:40.573Z,4.00
2023-04-11T20:34:43.953Z,4.82
2023-04-11T20:37:47.463Z,3.40
2023-04-11T20:40:49.903Z,3.30
2023-04-11T20:43:52.278Z,3.05
2023-04-11T20:46:54.687Z,3.75
2023-04-11T20:49:57.688Z,4.32
2023-04-11T20:53:03.616Z,4.65
2023-04-11T20:56:09.919Z,4.20
2023-04-11T20:59:13.224Z,6.97
2023-04-11T21:02:15.787Z,4.80
2023-04-11T21:05:20.852Z,5.03
2023-04-11T21:08:23.873Z,4.40
2023-04-11T21:11:26.295Z,3.83
2023-04-11T21:14:28.561Z,3.75
2023-04-11T21:17:35.862Z,3.63
2023-04-11T21:20:41.981Z,3.93
2023-04-11T21:23:44.203Z,4.28
2023-04-11T21:26:47.150Z,4.30
2023-04-11T21:29:49.864Z,4.07
2023-04-11T21:32:52.292Z,3.88
2023-04-11T21:35:55.629Z,4.50
2023-04-11T21:38:59.340Z,3.92
2023-04-11T21:42:01.779Z,5.05
2023-04-11T21:45:04.607Z,3.78
2023-04-11T21:48:06.813Z,4.63
2023-04-11T21:51:09.352Z,4.88
2023-04-11T21:54:11.838Z,4.90
2023-04-11T21:57:14.023Z,4.53
2023-04-11T22:00:17.802Z,4.63
2023-04-11T22:03:20.565Z,3.97
2023-04-11T22:06:24.494Z,3.38
2023-04-11T22:09:26.873Z,3.58
2023-04-11T22:12:29.448Z,4.28
2023-04-11T22:15:35.856Z,2.92
2023-04-11T22:18:47.782Z,3.60
2023-04-11T22:21:58.097Z,4.00
2023-04-11T22:25:00.716Z,4.28
2023-04-11T22:28:04.327Z,4.15
2023-04-11T22:31:09.879Z,3.92
2023-04-11T22:34:12.283Z,3.63
2023-04-11T22:37:14.377Z,4.57
2023-04-11T22:40:22.280Z,4.30
2023-04-11T22:43:24.444Z,3.72
2023-04-11T22:46:40.385Z,4.25
2023-04-11T22:49:45.011Z,4.07
2023-04-11T22:52:47.864Z,3.80
2023-04-11T22:55:50.263Z,3.60
2023-04-11T22:58:55.169Z,4.13
2023-04-11T23:01:58.124Z,3.53
2023-04-11T23:05:04.203Z,4.38
2023-04-11T23:08:07.088Z,4.80
2023-04-11T23:11:09.410Z,4.38
2023-04-11T23:14:15.537Z,4.50
2023-04-11T23:17:17.949Z,4.75
2023-04-11T23:20:22.290Z,3.78
2023-04-11T23:23:25.897Z,3.83
2023-04-11T23:26:28.212Z,3.92
2023-04-11T23:29:32.223Z,3.45
2023-04-11T23:32:35.840Z,4.20
2023-04-11T23:35:38.318Z,4.07
2023-04-11T23:38:42.164Z,5.18
2023-04-11T23:41:45.116Z,4.15
2023-04-11T23:44:47.613Z,3.97
2023-04-11T23:47:51.198Z,3.70
2023-04-11T23:50:53.387Z,3.40
2023-04-11T23:53:57.327Z,4.15
2023-04-11T23:56:59.770Z,4.38
